SEGUSEQM

Guest
Details From SEGU - Guayauqiil - Simon Bolivar Intl
To SEQM - Quito - Mariscal Sucre Intl
Flight Number -
Tags generated
Created
Modified
Stats Distance 153 nm / 283 km
Max Altitude 17,300 ft / 5,273 m
Waypoints 4
Social Downloads 0
Likes 0
Share VATSIM

Download

Looking for another format? Having issues loading an existing format? Contact us
Advertisement - Login to hide

Notes

Basic altitude profile: - Ascent Rate: 2500ft/min - Ascent Speed: 250kts - Cruise Altitude: 35000ft - Cruise Speed: 420kts - Descent Rate: 1500ft/min - Descent Speed: 250kts Options: - Use NATs: yes - Use PACOTS: yes - Use low airways: yes - Use high airways: yes

Route

SEGU CARTE W12 MORAS SEQM

ID Type Via Altitude Latitude Longitude Leg Dist Tot Dist Heading (true) Name
O SEGU APT - 0 ft / 0 m -2.15742˚ -79.88356˚ - 0 nm - Guayauqiil - Simon Bolivar Intl
CARTE FIX - 15,000 ft / 4,572 m -1.59056˚ -79.47222˚ 42 nm 42 nm 36° / 36° -
MORAS FIX W12 (AWY-LO) 17,300 ft / 5,273 m -1.18833˚ -79.17833˚ 29 nm 71 nm 36° / 36° -
O SEQM APT - 0 ft / 0 m -0.12409˚ -78.35438˚ 80 nm 152 nm 38° / 38° Quito - Mariscal Sucre Intl

Altitude Profile

Advertisement - Login to hide

SEGU

Details ICAO SEGU (GYE)
Name Guayauqiil - Simon Bolivar Intl
Region Equador
Timezone America/Guayaquil (UTC-5.0)
Stats Elevation 19 ft / 6 m (AMSL)
Location -2.157419° -79.883559°
Runways 1
Magnetic Variation 2.150° W

METAR

SEGU 131100Z 22008KT 9999 BKN026 OVC100 23/19 Q1012 NOSIG RMK A2989

Decode

TAF

Not found

Departure Runways

ID Width Length Bearing (true) Bearing (mag) Surface Threshold Offset Overrun Length
03 151 ft / 46 m 9,184 ft / 2,799 m 30.43° 32.58° Asphalt 338 ft / 103 m 280 ft / 85 m
21 151 ft / 46 m 9,184 ft / 2,799 m 210.43° 212.58° Asphalt 810 ft / 247 m 230 ft / 70 m

SEQM

Details ICAO SEQM
Name Quito - Mariscal Sucre Intl
Region Equador
Timezone America/Guayaquil (UTC-5.0)
Stats Elevation 7,841 ft / 2,390 m (AMSL)
Location -0.124089° -78.354381°
Runways 1
Magnetic Variation 3.594° W

METAR

SEQM 131100Z 17003KT 9999 SCT100 BKN300 05/04 Q1027 NOSIG RMK A3035

Decode

TAF

Not found

Destination Runways

ID Width Length Bearing (true) Bearing (mag) Surface Threshold Offset Overrun Length
18 171 ft / 52 m 13,524 ft / 4,122 m 177.61° 181.20° Asphalt 0 ft / 0 m 177 ft / 54 m
36 171 ft / 52 m 13,524 ft / 4,122 m 357.61° 1.20° Asphalt 0 ft / 0 m 184 ft / 56 m

Approach Navaids

Runway Type Ident Frequency Range Bearing (true) Bearing (mag) Slope Elevation
18 Localiser IQN 111.10 MHz 18 nm / 33 km 177.61° 181.20° - 7,841 ft / 2,390 m (AMSL)
18 Glidescope IQN 111.10 MHz 10 nm / 19 km 177.61° 181.20° 3.20° 7,841 ft / 2,390 m (AMSL)
36 Localiser IQS 109.30 MHz 18 nm / 33 km 357.61° 1.20° - 7,841 ft / 2,390 m (AMSL)
36 Glidescope IQS 109.30 MHz 10 nm / 19 km 357.61° 1.20° 3.20° 7,841 ft / 2,390 m (AMSL)

Popular Alternatives